Irish Sea — WDB5555 — position and weather

sailwx.info

Track history (hours):
 
Tides and Currents Weather Stations Pressure Air Temp Water Temp Dewpoint Dewpoint Depression Visibility Wind Speed Wind Dir Waves Ship Positions

Irish Sea

Owner: Kirby Offshore Marine, LLC, Staten Island, NY. More information available from US FCC via Universal Licensing System and Coast Guard Vessel Documentation Center.

Last reported at 2015-Jan-29 17:33 UTC. Time now 2015-Jan-29 18:29 UTC.
Position N 40°40' W 074°02'.

Length 152 m; draft 6.8 m.

Type: Ship (hazmat cat B). MMSI: 366910920.

Date/timePositionNaut miles runAvg speedWind from/ knotsBaromVisibWave heightAir tempDewpointWater temp
2015-Jan-29 17:33N 40°40' W 074°02'3 2.6
2015-Jan-29 16:32N 40°37' W 074°03'  
2015-Jan-25 19:31N 39°31' W 074°09'9 9.4
2015-Jan-25 18:33N 39°39' W 074°03'9 9.3
2015-Jan-25 17:32N 39°48' W 073°58'47 9.0
2015-Jan-25 12:16N 40°35' W 074°02'5 7.3
2015-Jan-25 11:33N 40°40' W 074°04'0 0.0
2015-Jan-25 10:22N 40°40' W 074°04'0 0.0
2015-Jan-25 09:22N 40°40' W 074°04'0 0.0
2015-Jan-25 08:28N 40°40' W 074°04'0 0.0
2015-Jan-25 07:16N 40°40' W 074°04'0 0.0
2015-Jan-25 06:28N 40°40' W 074°04'0 0.0
2015-Jan-25 05:28N 40°40' W 074°04'0 0.0
2015-Jan-25 04:28N 40°40' W 074°04'0 0.0
2015-Jan-25 03:33N 40°40' W 074°04'0 0.0
2015-Jan-25 02:33N 40°40' W 074°04'0 0.0
2015-Jan-25 01:33N 40°40' W 074°04'0 0.0
2015-Jan-25 00:33N 40°40' W 074°04'0 0.0
2015-Jan-24 23:27N 40°40' W 074°04'0 0.0
2015-Jan-24 22:33N 40°40' W 074°04'0 0.0
2015-Jan-24 21:33N 40°40' W 074°04'0 0.0
2015-Jan-24 20:33N 40°40' W 074°04'0 0.0
2015-Jan-24 19:33N 40°40' W 074°04'0 0.0
2015-Jan-24 18:33N 40°40' W 074°04'0 0.0
2015-Jan-24 17:33N 40°40' W 074°04'0 0.1
2015-Jan-24 16:33N 40°40' W 074°04'1 0.9
2015-Jan-24 15:28N 40°40' W 074°03'0 0.0
2015-Jan-24 14:28N 40°40' W 074°03'0 0.0
2015-Jan-24 13:32N 40°40' W 074°03'4 4.1
2015-Jan-24 12:34N 40°43' W 074°01'1 0.6
2015-Jan-24 11:34N 40°43' W 074°01'7 0.4
2015-Jan-23 17:10N 40°48' W 073°54'0 0.0
2015-Jan-23 13:06N 40°48' W 073°54'0 0.0
2015-Jan-23 11:07N 40°48' W 073°54'4 2.5
2015-Jan-23 09:33N 40°45' W 073°58'5 4.5
2015-Jan-23 08:33N 40°41' W 074°01'5 4.8
2015-Jan-23 07:32N 40°37' W 074°03'32 6.0
2015-Jan-23 02:12N 40°05' W 073°55'28 7.6
2015-Jan-22 22:32N 39°38' W 074°02'  
Track history (hours):
 
Tides and Currents Weather Stations Pressure Air Temp Water Temp Dewpoint Dewpoint Depression Visibility Wind Speed Wind Dir Waves Ship Positions

Irish Sea

Owner: Kirby Offshore Marine, LLC, Staten Island, NY. More information available from US FCC via Universal Licensing System and Coast Guard Vessel Documentation Center.

Last reported at 2015-Jan-29 17:33 UTC. Time now 2015-Jan-29 18:29 UTC.
Position N 40°40' W 074°02'.

Length 152 m; draft 6.8 m.

Type: Ship (hazmat cat B). MMSI: 366910920.

Date/timePositionNaut miles runAvg speedWind from/ knotsBaromVisibWave heightAir tempDewpointWater temp
2015-Jan-29 17:33N 40°40' W 074°02'3 2.6
2015-Jan-29 16:32N 40°37' W 074°03'  
2015-Jan-25 19:31N 39°31' W 074°09'9 9.4
2015-Jan-25 18:33N 39°39' W 074°03'9 9.3
2015-Jan-25 17:32N 39°48' W 073°58'47 9.0
2015-Jan-25 12:16N 40°35' W 074°02'5 7.3
2015-Jan-25 11:33N 40°40' W 074°04'0 0.0
2015-Jan-25 10:22N 40°40' W 074°04'0 0.0
2015-Jan-25 09:22N 40°40' W 074°04'0 0.0
2015-Jan-25 08:28N 40°40' W 074°04'0 0.0
2015-Jan-25 07:16N 40°40' W 074°04'0 0.0
2015-Jan-25 06:28N 40°40' W 074°04'0 0.0
2015-Jan-25 05:28N 40°40' W 074°04'0 0.0
2015-Jan-25 04:28N 40°40' W 074°04'0 0.0
2015-Jan-25 03:33N 40°40' W 074°04'0 0.0
2015-Jan-25 02:33N 40°40' W 074°04'0 0.0
2015-Jan-25 01:33N 40°40' W 074°04'0 0.0
2015-Jan-25 00:33N 40°40' W 074°04'0 0.0
2015-Jan-24 23:27N 40°40' W 074°04'0 0.0
2015-Jan-24 22:33N 40°40' W 074°04'0 0.0
2015-Jan-24 21:33N 40°40' W 074°04'0 0.0
2015-Jan-24 20:33N 40°40' W 074°04'0 0.0
2015-Jan-24 19:33N 40°40' W 074°04'0 0.0
2015-Jan-24 18:33N 40°40' W 074°04'0 0.0
2015-Jan-24 17:33N 40°40' W 074°04'0 0.1
2015-Jan-24 16:33N 40°40' W 074°04'1 0.9
2015-Jan-24 15:28N 40°40' W 074°03'0 0.0
2015-Jan-24 14:28N 40°40' W 074°03'0 0.0
2015-Jan-24 13:32N 40°40' W 074°03'4 4.1
2015-Jan-24 12:34N 40°43' W 074°01'1 0.6
2015-Jan-24 11:34N 40°43' W 074°01'7 0.4
2015-Jan-23 17:10N 40°48' W 073°54'0 0.0
2015-Jan-23 13:06N 40°48' W 073°54'0 0.0
2015-Jan-23 11:07N 40°48' W 073°54'4 2.5
2015-Jan-23 09:33N 40°45' W 073°58'5 4.5
2015-Jan-23 08:33N 40°41' W 074°01'5 4.8
2015-Jan-23 07:32N 40°37' W 074°03'32 6.0
2015-Jan-23 02:12N 40°05' W 073°55'28 7.6
2015-Jan-22 22:32N 39°38' W 074°02'  

Dump ship's entire track history